sensor_id;sensor_type;location;lat;lon;timestamp;P1;durP1;ratioP1;P2;durP2;ratioP2
16524;SDS011;8375;33.594;-117.718;2022-08-25T00:00:32;10.20;;;5.90;;
16524;SDS011;8375;33.594;-117.718;2022-08-25T00:03:00;9.98;;;5.80;;
16524;SDS011;8375;33.594;-117.718;2022-08-25T00:05:30;9.23;;;5.35;;
16524;SDS011;8375;33.594;-117.718;2022-08-25T00:08:02;13.30;;;6.20;;
16524;SDS011;8375;33.594;-117.718;2022-08-25T00:10:38;7.93;;;5.90;;
16524;SDS011;8375;33.594;-117.718;2022-08-25T00:13:07;9.93;;;6.32;;
16524;SDS011;8375;33.594;-117.718;2022-08-25T00:15:36;12.52;;;5.80;;
16524;SDS011;8375;33.594;-117.718;2022-08-25T00:18:05;11.38;;;5.88;;
16524;SDS011;8375;33.594;-117.718;2022-08-25T00:20:33;8.60;;;5.25;;
16524;SDS011;8375;33.594;-117.718;2022-08-25T00:23:02;10.45;;;5.75;;
16524;SDS011;8375;33.594;-117.718;2022-08-25T00:25:30;10.13;;;6.10;;
16524;SDS011;8375;33.594;-117.718;2022-08-25T00:28:01;12.13;;;6.00;;
16524;SDS011;8375;33.594;-117.718;2022-08-25T00:30:29;10.20;;;6.28;;
16524;SDS011;8375;33.594;-117.718;2022-08-25T00:32:58;10.23;;;6.18;;
16524;SDS011;8375;33.594;-117.718;2022-08-25T00:35:27;10.27;;;6.40;;
16524;SDS011;8375;33.594;-117.718;2022-08-25T00:37:55;10.77;;;6.28;;
16524;SDS011;8375;33.594;-117.718;2022-08-25T00:40:24;11.10;;;5.72;;
16524;SDS011;8375;33.594;-117.718;2022-08-25T00:42:53;9.60;;;5.70;;
16524;SDS011;8375;33.594;-117.718;2022-08-25T00:45:24;10.00;;;6.00;;
16524;SDS011;8375;33.594;-117.718;2022-08-25T00:47:52;7.85;;;5.55;;
16524;SDS011;8375;33.594;-117.718;2022-08-25T00:50:21;10.13;;;5.57;;
16524;SDS011;8375;33.594;-117.718;2022-08-25T00:52:51;9.45;;;5.47;;
16524;SDS011;8375;33.594;-117.718;2022-08-25T00:55:22;8.95;;;5.57;;
16524;SDS011;8375;33.594;-117.718;2022-08-25T00:57:55;10.95;;;5.75;;
16524;SDS011;8375;33.594;-117.718;2022-08-25T01:00:30;9.15;;;6.22;;
16524;SDS011;8375;33.594;-117.718;2022-08-25T01:03:01;9.38;;;5.75;;
16524;SDS011;8375;33.594;-117.718;2022-08-25T01:05:30;9.60;;;5.50;;
16524;SDS011;8375;33.594;-117.718;2022-08-25T01:07:59;7.82;;;5.45;;
16524;SDS011;8375;33.594;-117.718;2022-08-25T01:10:31;9.63;;;5.97;;
16524;SDS011;8375;33.594;-117.718;2022-08-25T01:13:03;7.28;;;5.75;;
16524;SDS011;8375;33.594;-117.718;2022-08-25T01:15:39;10.23;;;6.32;;
16524;SDS011;8375;33.594;-117.718;2022-08-25T01:18:07;8.15;;;5.43;;
16524;SDS011;8375;33.594;-117.718;2022-08-25T01:20:36;14.25;;;5.80;;
16524;SDS011;8375;33.594;-117.718;2022-08-25T01:23:06;11.40;;;5.28;;
16524;SDS011;8375;33.594;-117.718;2022-08-25T01:25:38;8.93;;;5.70;;
16524;SDS011;8375;33.594;-117.718;2022-08-25T01:28:12;11.40;;;6.15;;
16524;SDS011;8375;33.594;-117.718;2022-08-25T01:30:41;8.25;;;5.75;;
16524;SDS011;8375;33.594;-117.718;2022-08-25T01:33:10;9.63;;;5.85;;
16524;SDS011;8375;33.594;-117.718;2022-08-25T01:35:41;9.57;;;5.47;;
16524;SDS011;8375;33.594;-117.718;2022-08-25T01:38:12;10.65;;;6.38;;
16524;SDS011;8375;33.594;-117.718;2022-08-25T01:40:41;11.07;;;6.28;;
16524;SDS011;8375;33.594;-117.718;2022-08-25T01:43:11;10.00;;;6.10;;
16524;SDS011;8375;33.594;-117.718;2022-08-25T01:45:48;10.30;;;6.30;;
16524;SDS011;8375;33.594;-117.718;2022-08-25T01:48:17;12.25;;;7.35;;
16524;SDS011;8375;33.594;-117.718;2022-08-25T01:50:45;13.83;;;6.53;;
16524;SDS011;8375;33.594;-117.718;2022-08-25T01:53:18;11.98;;;5.97;;
16524;SDS011;8375;33.594;-117.718;2022-08-25T01:55:50;9.48;;;6.38;;
16524;SDS011;8375;33.594;-117.718;2022-08-25T01:58:26;9.70;;;5.80;;
16524;SDS011;8375;33.594;-117.718;2022-08-25T02:00:57;13.02;;;5.88;;
16524;SDS011;8375;33.594;-117.718;2022-08-25T02:03:28;10.35;;;5.97;;
16524;SDS011;8375;33.594;-117.718;2022-08-25T02:05:57;9.45;;;6.10;;
16524;SDS011;8375;33.594;-117.718;2022-08-25T02:08:28;8.68;;;6.00;;
16524;SDS011;8375;33.594;-117.718;2022-08-25T02:10:56;10.47;;;5.87;;
16524;SDS011;8375;33.594;-117.718;2022-08-25T02:13:25;12.18;;;6.63;;
16524;SDS011;8375;33.594;-117.718;2022-08-25T02:15:54;16.67;;;6.73;;
16524;SDS011;8375;33.594;-117.718;2022-08-25T02:18:24;10.03;;;5.63;;
16524;SDS011;8375;33.594;-117.718;2022-08-25T02:20:54;11.20;;;6.63;;
16524;SDS011;8375;33.594;-117.718;2022-08-25T02:23:22;10.57;;;5.90;;
16524;SDS011;8375;33.594;-117.718;2022-08-25T02:25:53;11.43;;;6.27;;
16524;SDS011;8375;33.594;-117.718;2022-08-25T02:28:23;12.50;;;6.13;;
16524;SDS011;8375;33.594;-117.718;2022-08-25T02:30:52;13.80;;;6.53;;
16524;SDS011;8375;33.594;-117.718;2022-08-25T02:33:20;11.20;;;5.97;;
16524;SDS011;8375;33.594;-117.718;2022-08-25T02:35:49;8.53;;;5.70;;
16524;SDS011;8375;33.594;-117.718;2022-08-25T02:38:18;10.90;;;6.00;;
16524;SDS011;8375;33.594;-117.718;2022-08-25T02:40:46;11.60;;;5.73;;
16524;SDS011;8375;33.594;-117.718;2022-08-25T02:43:18;13.63;;;6.43;;
16524;SDS011;8375;33.594;-117.718;2022-08-25T02:45:47;11.40;;;6.00;;
16524;SDS011;8375;33.594;-117.718;2022-08-25T02:48:15;12.77;;;6.37;;
16524;SDS011;8375;33.594;-117.718;2022-08-25T02:50:45;10.80;;;6.23;;
16524;SDS011;8375;33.594;-117.718;2022-08-25T02:53:17;11.50;;;6.17;;
16524;SDS011;8375;33.594;-117.718;2022-08-25T02:55:46;12.30;;;6.37;;
16524;SDS011;8375;33.594;-117.718;2022-08-25T02:58:14;14.03;;;6.43;;
16524;SDS011;8375;33.594;-117.718;2022-08-25T03:00:46;11.43;;;6.07;;
16524;SDS011;8375;33.594;-117.718;2022-08-25T03:03:15;12.07;;;6.63;;
16524;SDS011;8375;33.594;-117.718;2022-08-25T03:05:45;12.20;;;5.90;;
16524;SDS011;8375;33.594;-117.718;2022-08-25T03:08:14;10.03;;;5.83;;
16524;SDS011;8375;33.594;-117.718;2022-08-25T03:10:43;11.53;;;5.67;;
16524;SDS011;8375;33.594;-117.718;2022-08-25T03:13:13;12.03;;;6.07;;
16524;SDS011;8375;33.594;-117.718;2022-08-25T03:15:42;11.13;;;6.47;;
16524;SDS011;8375;33.594;-117.718;2022-08-25T03:18:12;9.70;;;6.10;;
16524;SDS011;8375;33.594;-117.718;2022-08-25T03:20:42;9.53;;;6.20;;
16524;SDS011;8375;33.594;-117.718;2022-08-25T03:23:12;9.60;;;6.17;;
16524;SDS011;8375;33.594;-117.718;2022-08-25T03:25:42;12.87;;;6.90;;
16524;SDS011;8375;33.594;-117.718;2022-08-25T03:28:34;11.93;;;6.77;;
16524;SDS011;8375;33.594;-117.718;2022-08-25T03:31:09;12.03;;;7.37;;
16524;SDS011;8375;33.594;-117.718;2022-08-25T03:33:40;13.37;;;6.03;;
16524;SDS011;8375;33.594;-117.718;2022-08-25T03:36:11;12.37;;;6.33;;
16524;SDS011;8375;33.594;-117.718;2022-08-25T03:38:41;12.13;;;7.57;;
16524;SDS011;8375;33.594;-117.718;2022-08-25T03:41:11;11.20;;;6.70;;
16524;SDS011;8375;33.594;-117.718;2022-08-25T03:43:41;12.57;;;7.10;;
16524;SDS011;8375;33.594;-117.718;2022-08-25T03:46:16;11.90;;;6.77;;
16524;SDS011;8375;33.594;-117.718;2022-08-25T03:48:48;10.83;;;6.87;;
16524;SDS011;8375;33.594;-117.718;2022-08-25T03:51:19;11.33;;;6.67;;
16524;SDS011;8375;33.594;-117.718;2022-08-25T03:53:50;13.60;;;6.90;;
16524;SDS011;8375;33.594;-117.718;2022-08-25T03:56:20;13.50;;;7.33;;
16524;SDS011;8375;33.594;-117.718;2022-08-25T03:58:49;16.50;;;6.87;;
16524;SDS011;8375;33.594;-117.718;2022-08-25T04:01:19;11.93;;;7.10;;
16524;SDS011;8375;33.594;-117.718;2022-08-25T04:03:50;12.07;;;7.07;;
16524;SDS011;8375;33.594;-117.718;2022-08-25T04:06:20;13.10;;;7.03;;
16524;SDS011;8375;33.594;-117.718;2022-08-25T04:08:51;13.17;;;6.70;;
16524;SDS011;8375;33.594;-117.718;2022-08-25T04:11:21;11.43;;;6.83;;
16524;SDS011;8375;33.594;-117.718;2022-08-25T04:13:50;11.50;;;5.90;;
16524;SDS011;8375;33.594;-117.718;2022-08-25T04:16:22;11.87;;;6.37;;
16524;SDS011;8375;33.594;-117.718;2022-08-25T04:18:56;13.77;;;6.20;;
16524;SDS011;8375;33.594;-117.718;2022-08-25T04:21:25;12.20;;;6.50;;
16524;SDS011;8375;33.594;-117.718;2022-08-25T04:23:55;10.70;;;5.53;;
16524;SDS011;8375;33.594;-117.718;2022-08-25T04:26:24;13.23;;;6.37;;
16524;SDS011;8375;33.594;-117.718;2022-08-25T04:28:56;13.97;;;6.60;;
16524;SDS011;8375;33.594;-117.718;2022-08-25T04:31:26;10.20;;;6.10;;
16524;SDS011;8375;33.594;-117.718;2022-08-25T04:33:58;10.00;;;5.43;;
16524;SDS011;8375;33.594;-117.718;2022-08-25T04:36:29;12.73;;;6.53;;
16524;SDS011;8375;33.594;-117.718;2022-08-25T04:38:58;11.77;;;5.67;;
16524;SDS011;8375;33.594;-117.718;2022-08-25T04:41:27;11.70;;;5.43;;
16524;SDS011;8375;33.594;-117.718;2022-08-25T04:43:57;14.47;;;6.07;;
16524;SDS011;8375;33.594;-117.718;2022-08-25T04:46:28;12.63;;;5.57;;
16524;SDS011;8375;33.594;-117.718;2022-08-25T04:49:02;12.27;;;5.37;;
16524;SDS011;8375;33.594;-117.718;2022-08-25T04:51:32;12.07;;;5.77;;
16524;SDS011;8375;33.594;-117.718;2022-08-25T04:54:04;11.63;;;5.40;;
16524;SDS011;8375;33.594;-117.718;2022-08-25T04:56:34;10.93;;;5.80;;
16524;SDS011;8375;33.594;-117.718;2022-08-25T04:59:03;13.80;;;5.90;;
16524;SDS011;8375;33.594;-117.718;2022-08-25T05:01:35;10.40;;;5.93;;
16524;SDS011;8375;33.594;-117.718;2022-08-25T05:04:06;13.70;;;5.90;;
16524;SDS011;8375;33.594;-117.718;2022-08-25T05:06:37;11.83;;;5.50;;
16524;SDS011;8375;33.594;-117.718;2022-08-25T05:09:05;16.85;;;5.80;;
16524;SDS011;8375;33.594;-117.718;2022-08-25T05:11:34;18.90;;;6.57;;
16524;SDS011;8375;33.594;-117.718;2022-08-25T05:14:03;10.40;;;5.90;;
16524;SDS011;8375;33.594;-117.718;2022-08-25T05:16:36;14.67;;;5.27;;
16524;SDS011;8375;33.594;-117.718;2022-08-25T05:19:06;14.97;;;5.40;;
16524;SDS011;8375;33.594;-117.718;2022-08-25T05:21:35;14.93;;;6.00;;
16524;SDS011;8375;33.594;-117.718;2022-08-25T05:24:04;13.10;;;5.30;;
16524;SDS011;8375;33.594;-117.718;2022-08-25T05:26:33;11.20;;;5.37;;
16524;SDS011;8375;33.594;-117.718;2022-08-25T05:29:03;11.57;;;5.10;;
16524;SDS011;8375;33.594;-117.718;2022-08-25T05:31:32;10.90;;;5.53;;
16524;SDS011;8375;33.594;-117.718;2022-08-25T05:34:04;13.07;;;5.30;;
16524;SDS011;8375;33.594;-117.718;2022-08-25T05:36:36;8.37;;;5.17;;
16524;SDS011;8375;33.594;-117.718;2022-08-25T05:39:07;17.73;;;5.30;;
16524;SDS011;8375;33.594;-117.718;2022-08-25T05:41:36;12.90;;;5.00;;
16524;SDS011;8375;33.594;-117.718;2022-08-25T05:44:05;14.87;;;5.33;;
16524;SDS011;8375;33.594;-117.718;2022-08-25T05:46:34;12.67;;;5.70;;
16524;SDS011;8375;33.594;-117.718;2022-08-25T05:49:03;13.53;;;5.13;;
16524;SDS011;8375;33.594;-117.718;2022-08-25T05:51:33;9.50;;;5.53;;
16524;SDS011;8375;33.594;-117.718;2022-08-25T05:54:01;13.33;;;5.87;;
16524;SDS011;8375;33.594;-117.718;2022-08-25T05:56:30;14.47;;;6.13;;
16524;SDS011;8375;33.594;-117.718;2022-08-25T05:58:59;12.27;;;5.60;;
16524;SDS011;8375;33.594;-117.718;2022-08-25T06:01:28;11.43;;;5.60;;
16524;SDS011;8375;33.594;-117.718;2022-08-25T06:04:13;12.60;;;4.63;;
16524;SDS011;8375;33.594;-117.718;2022-08-25T06:06:46;12.17;;;5.60;;
16524;SDS011;8375;33.594;-117.718;2022-08-25T06:09:18;11.30;;;5.37;;
16524;SDS011;8375;33.594;-117.718;2022-08-25T06:11:47;15.37;;;5.73;;
16524;SDS011;8375;33.594;-117.718;2022-08-25T06:14:15;13.07;;;5.47;;
16524;SDS011;8375;33.594;-117.718;2022-08-25T06:16:44;13.60;;;5.70;;
16524;SDS011;8375;33.594;-117.718;2022-08-25T06:19:16;9.30;;;4.83;;
16524;SDS011;8375;33.594;-117.718;2022-08-25T06:21:47;11.80;;;5.20;;
16524;SDS011;8375;33.594;-117.718;2022-08-25T06:24:19;10.77;;;5.37;;
16524;SDS011;8375;33.594;-117.718;2022-08-25T06:26:47;12.50;;;5.00;;
16524;SDS011;8375;33.594;-117.718;2022-08-25T06:29:16;10.70;;;4.47;;
16524;SDS011;8375;33.594;-117.718;2022-08-25T06:31:45;12.77;;;5.37;;
16524;SDS011;8375;33.594;-117.718;2022-08-25T06:34:14;11.77;;;5.30;;
16524;SDS011;8375;33.594;-117.718;2022-08-25T06:36:44;11.03;;;5.67;;
16524;SDS011;8375;33.594;-117.718;2022-08-25T06:39:15;11.17;;;4.70;;
16524;SDS011;8375;33.594;-117.718;2022-08-25T06:41:44;15.13;;;5.33;;
16524;SDS011;8375;33.594;-117.718;2022-08-25T06:44:17;12.07;;;5.57;;
16524;SDS011;8375;33.594;-117.718;2022-08-25T06:46:52;13.47;;;5.77;;
16524;SDS011;8375;33.594;-117.718;2022-08-25T06:49:22;10.33;;;5.23;;
16524;SDS011;8375;33.594;-117.718;2022-08-25T06:51:55;13.77;;;5.50;;
16524;SDS011;8375;33.594;-117.718;2022-08-25T06:54:23;13.53;;;5.57;;
16524;SDS011;8375;33.594;-117.718;2022-08-25T06:56:52;13.37;;;5.60;;
16524;SDS011;8375;33.594;-117.718;2022-08-25T06:59:21;13.17;;;5.70;;
16524;SDS011;8375;33.594;-117.718;2022-08-25T07:01:50;12.80;;;5.33;;
16524;SDS011;8375;33.594;-117.718;2022-08-25T07:04:19;9.77;;;5.47;;
16524;SDS011;8375;33.594;-117.718;2022-08-25T07:06:48;13.43;;;5.50;;
16524;SDS011;8375;33.594;-117.718;2022-08-25T07:09:18;11.23;;;5.40;;
16524;SDS011;8375;33.594;-117.718;2022-08-25T07:11:47;11.17;;;5.00;;
16524;SDS011;8375;33.594;-117.718;2022-08-25T07:14:17;11.37;;;5.93;;
16524;SDS011;8375;33.594;-117.718;2022-08-25T07:16:47;17.07;;;5.70;;
16524;SDS011;8375;33.594;-117.718;2022-08-25T07:19:15;9.63;;;5.30;;
16524;SDS011;8375;33.594;-117.718;2022-08-25T07:21:45;11.00;;;4.90;;
16524;SDS011;8375;33.594;-117.718;2022-08-25T07:24:15;9.97;;;4.93;;
16524;SDS011;8375;33.594;-117.718;2022-08-25T07:26:46;15.80;;;6.47;;
16524;SDS011;8375;33.594;-117.718;2022-08-25T07:29:17;10.57;;;5.87;;
16524;SDS011;8375;33.594;-117.718;2022-08-25T07:31:48;11.90;;;5.90;;
16524;SDS011;8375;33.594;-117.718;2022-08-25T07:34:17;12.30;;;5.77;;
16524;SDS011;8375;33.594;-117.718;2022-08-25T07:37:03;13.67;;;5.70;;
16524;SDS011;8375;33.594;-117.718;2022-08-25T07:39:33;11.37;;;5.33;;
16524;SDS011;8375;33.594;-117.718;2022-08-25T07:42:02;15.90;;;6.37;;
16524;SDS011;8375;33.594;-117.718;2022-08-25T07:44:31;15.90;;;5.57;;
16524;SDS011;8375;33.594;-117.718;2022-08-25T07:47:00;9.97;;;5.07;;
16524;SDS011;8375;33.594;-117.718;2022-08-25T07:49:29;12.47;;;5.87;;
16524;SDS011;8375;33.594;-117.718;2022-08-25T07:51:58;12.17;;;5.43;;
16524;SDS011;8375;33.594;-117.718;2022-08-25T07:54:27;12.03;;;5.33;;
16524;SDS011;8375;33.594;-117.718;2022-08-25T07:56:58;13.93;;;5.83;;
16524;SDS011;8375;33.594;-117.718;2022-08-25T07:59:27;15.60;;;5.90;;
16524;SDS011;8375;33.594;-117.718;2022-08-25T08:01:55;13.60;;;6.03;;
16524;SDS011;8375;33.594;-117.718;2022-08-25T08:04:24;12.47;;;4.70;;
16524;SDS011;8375;33.594;-117.718;2022-08-25T08:06:52;13.47;;;5.53;;
16524;SDS011;8375;33.594;-117.718;2022-08-25T08:09:21;11.37;;;5.53;;
16524;SDS011;8375;33.594;-117.718;2022-08-25T08:11:50;10.13;;;5.07;;
16524;SDS011;8375;33.594;-117.718;2022-08-25T08:14:20;11.67;;;5.47;;
16524;SDS011;8375;33.594;-117.718;2022-08-25T08:16:49;11.90;;;5.33;;
16524;SDS011;8375;33.594;-117.718;2022-08-25T08:19:18;9.63;;;5.67;;
16524;SDS011;8375;33.594;-117.718;2022-08-25T08:21:47;8.67;;;5.23;;
16524;SDS011;8375;33.594;-117.718;2022-08-25T08:24:16;8.13;;;5.27;;
16524;SDS011;8375;33.594;-117.718;2022-08-25T08:26:44;11.27;;;5.33;;
16524;SDS011;8375;33.594;-117.718;2022-08-25T08:29:13;12.30;;;5.03;;
16524;SDS011;8375;33.594;-117.718;2022-08-25T08:31:43;16.70;;;5.10;;
16524;SDS011;8375;33.594;-117.718;2022-08-25T08:34:12;12.07;;;5.10;;
16524;SDS011;8375;33.594;-117.718;2022-08-25T08:36:40;13.20;;;5.67;;
16524;SDS011;8375;33.594;-117.718;2022-08-25T08:39:09;10.30;;;4.90;;
16524;SDS011;8375;33.594;-117.718;2022-08-25T08:45:04;13.53;;;5.53;;
16524;SDS011;8375;33.594;-117.718;2022-08-25T08:47:48;11.07;;;5.57;;
16524;SDS011;8375;33.594;-117.718;2022-08-25T08:50:29;15.17;;;5.73;;
16524;SDS011;8375;33.594;-117.718;2022-08-25T08:53:06;11.53;;;5.57;;
16524;SDS011;8375;33.594;-117.718;2022-08-25T08:55:38;12.13;;;5.50;;
16524;SDS011;8375;33.594;-117.718;2022-08-25T08:58:10;10.40;;;5.03;;
16524;SDS011;8375;33.594;-117.718;2022-08-25T09:00:43;11.43;;;5.87;;
16524;SDS011;8375;33.594;-117.718;2022-08-25T09:03:26;10.07;;;5.50;;
16524;SDS011;8375;33.594;-117.718;2022-08-25T09:06:01;12.37;;;6.00;;
16524;SDS011;8375;33.594;-117.718;2022-08-25T09:08:33;11.17;;;5.60;;
16524;SDS011;8375;33.594;-117.718;2022-08-25T09:11:06;9.63;;;5.83;;
16524;SDS011;8375;33.594;-117.718;2022-08-25T09:13:43;11.60;;;5.80;;
16524;SDS011;8375;33.594;-117.718;2022-08-25T09:16:27;11.57;;;5.90;;
16524;SDS011;8375;33.594;-117.718;2022-08-25T09:19:23;10.30;;;6.00;;
16524;SDS011;8375;33.594;-117.718;2022-08-25T09:22:01;15.10;;;6.13;;
16524;SDS011;8375;33.594;-117.718;2022-08-25T09:24:41;11.80;;;5.43;;
16524;SDS011;8375;33.594;-117.718;2022-08-25T09:27:23;13.77;;;6.30;;
16524;SDS011;8375;33.594;-117.718;2022-08-25T09:30:02;12.83;;;5.87;;
16524;SDS011;8375;33.594;-117.718;2022-08-25T09:32:35;13.23;;;5.80;;
16524;SDS011;8375;33.594;-117.718;2022-08-25T09:35:12;11.53;;;5.90;;
16524;SDS011;8375;33.594;-117.718;2022-08-25T09:37:55;10.93;;;5.77;;
16524;SDS011;8375;33.594;-117.718;2022-08-25T09:40:25;9.17;;;5.30;;
16524;SDS011;8375;33.594;-117.718;2022-08-25T09:43:00;11.83;;;5.80;;
16524;SDS011;8375;33.594;-117.718;2022-08-25T09:45:39;12.57;;;5.97;;
16524;SDS011;8375;33.594;-117.718;2022-08-25T09:48:20;13.40;;;6.30;;
16524;SDS011;8375;33.594;-117.718;2022-08-25T09:50:55;14.07;;;6.13;;
16524;SDS011;8375;33.594;-117.718;2022-08-25T09:53:26;12.37;;;6.20;;
16524;SDS011;8375;33.594;-117.718;2022-08-25T09:55:58;16.53;;;6.13;;
16524;SDS011;8375;33.594;-117.718;2022-08-25T09:58:29;12.13;;;5.73;;
16524;SDS011;8375;33.594;-117.718;2022-08-25T10:01:05;12.87;;;5.67;;
16524;SDS011;8375;33.594;-117.718;2022-08-25T10:06:32;12.17;;;6.23;;
16524;SDS011;8375;33.594;-117.718;2022-08-25T10:09:04;14.00;;;6.20;;
16524;SDS011;8375;33.594;-117.718;2022-08-25T10:11:35;13.47;;;5.87;;
16524;SDS011;8375;33.594;-117.718;2022-08-25T10:14:16;14.20;;;6.00;;
16524;SDS011;8375;33.594;-117.718;2022-08-25T10:16:48;15.43;;;6.50;;
16524;SDS011;8375;33.594;-117.718;2022-08-25T10:19:24;12.93;;;6.03;;
16524;SDS011;8375;33.594;-117.718;2022-08-25T10:22:06;14.67;;;6.23;;
16524;SDS011;8375;33.594;-117.718;2022-08-25T10:24:37;14.93;;;6.00;;
16524;SDS011;8375;33.594;-117.718;2022-08-25T10:27:08;10.93;;;6.20;;
16524;SDS011;8375;33.594;-117.718;2022-08-25T10:32:51;14.30;;;6.40;;
16524;SDS011;8375;33.594;-117.718;2022-08-25T10:35:37;11.93;;;7.13;;
16524;SDS011;8375;33.594;-117.718;2022-08-25T10:38:21;10.93;;;6.00;;
16524;SDS011;8375;33.594;-117.718;2022-08-25T10:41:00;13.57;;;6.77;;
16524;SDS011;8375;33.594;-117.718;2022-08-25T10:43:40;14.93;;;6.20;;
16524;SDS011;8375;33.594;-117.718;2022-08-25T10:46:15;13.30;;;6.30;;
16524;SDS011;8375;33.594;-117.718;2022-08-25T10:48:55;17.20;;;6.50;;
16524;SDS011;8375;33.594;-117.718;2022-08-25T10:51:36;12.37;;;6.33;;
16524;SDS011;8375;33.594;-117.718;2022-08-25T10:54:14;14.53;;;6.10;;
16524;SDS011;8375;33.594;-117.718;2022-08-25T10:56:55;13.23;;;6.10;;
16524;SDS011;8375;33.594;-117.718;2022-08-25T11:02:36;14.57;;;6.83;;
16524;SDS011;8375;33.594;-117.718;2022-08-25T11:05:25;12.90;;;5.87;;
16524;SDS011;8375;33.594;-117.718;2022-08-25T11:07:58;10.67;;;5.67;;
16524;SDS011;8375;33.594;-117.718;2022-08-25T11:10:38;12.33;;;6.10;;
16524;SDS011;8375;33.594;-117.718;2022-08-25T11:13:12;13.53;;;6.20;;
16524;SDS011;8375;33.594;-117.718;2022-08-25T11:15:48;12.40;;;5.83;;
16524;SDS011;8375;33.594;-117.718;2022-08-25T11:18:19;13.23;;;5.73;;
16524;SDS011;8375;33.594;-117.718;2022-08-25T11:20:49;15.57;;;6.20;;
16524;SDS011;8375;33.594;-117.718;2022-08-25T11:23:27;11.10;;;5.60;;
16524;SDS011;8375;33.594;-117.718;2022-08-25T11:26:05;13.57;;;6.93;;
16524;SDS011;8375;33.594;-117.718;2022-08-25T11:28:42;14.90;;;6.53;;
16524;SDS011;8375;33.594;-117.718;2022-08-25T11:31:20;13.67;;;6.87;;
16524;SDS011;8375;33.594;-117.718;2022-08-25T11:33:51;14.73;;;6.73;;
16524;SDS011;8375;33.594;-117.718;2022-08-25T11:36:23;13.63;;;7.50;;
16524;SDS011;8375;33.594;-117.718;2022-08-25T11:39:02;12.70;;;6.97;;
16524;SDS011;8375;33.594;-117.718;2022-08-25T11:41:41;12.43;;;6.47;;
16524;SDS011;8375;33.594;-117.718;2022-08-25T11:44:31;14.13;;;6.33;;
16524;SDS011;8375;33.594;-117.718;2022-08-25T11:47:19;14.13;;;6.57;;
16524;SDS011;8375;33.594;-117.718;2022-08-25T11:50:04;13.97;;;6.50;;
16524;SDS011;8375;33.594;-117.718;2022-08-25T11:52:41;12.80;;;6.57;;
16524;SDS011;8375;33.594;-117.718;2022-08-25T11:55:14;12.83;;;6.67;;
16524;SDS011;8375;33.594;-117.718;2022-08-25T11:57:47;11.47;;;6.20;;
16524;SDS011;8375;33.594;-117.718;2022-08-25T12:06:15;9.77;;;6.67;;
16524;SDS011;8375;33.594;-117.718;2022-08-25T12:08:48;10.70;;;6.50;;
16524;SDS011;8375;33.594;-117.718;2022-08-25T12:14:19;15.37;;;7.27;;
16524;SDS011;8375;33.594;-117.718;2022-08-25T12:17:10;12.73;;;6.43;;
16524;SDS011;8375;33.594;-117.718;2022-08-25T12:19:52;15.10;;;7.50;;
16524;SDS011;8375;33.594;-117.718;2022-08-25T12:22:38;18.13;;;7.57;;
16524;SDS011;8375;33.594;-117.718;2022-08-25T12:25:25;16.00;;;7.37;;
16524;SDS011;8375;33.594;-117.718;2022-08-25T12:28:06;53.07;;;13.60;;
16524;SDS011;8375;33.594;-117.718;2022-08-25T12:30:47;23.10;;;8.73;;
16524;SDS011;8375;33.594;-117.718;2022-08-25T12:33:24;13.80;;;6.80;;
16524;SDS011;8375;33.594;-117.718;2022-08-25T12:36:04;13.80;;;6.97;;
16524;SDS011;8375;33.594;-117.718;2022-08-25T12:38:36;11.17;;;6.80;;
16524;SDS011;8375;33.594;-117.718;2022-08-25T12:41:09;15.70;;;7.00;;
16524;SDS011;8375;33.594;-117.718;2022-08-25T12:43:40;12.77;;;6.77;;
16524;SDS011;8375;33.594;-117.718;2022-08-25T12:49:02;14.00;;;6.67;;
16524;SDS011;8375;33.594;-117.718;2022-08-25T12:51:43;12.73;;;6.60;;
16524;SDS011;8375;33.594;-117.718;2022-08-25T12:54:19;13.00;;;6.60;;
16524;SDS011;8375;33.594;-117.718;2022-08-25T12:56:53;12.13;;;6.60;;
16524;SDS011;8375;33.594;-117.718;2022-08-25T12:59:31;13.00;;;6.93;;
16524;SDS011;8375;33.594;-117.718;2022-08-25T13:02:11;14.37;;;7.73;;
16524;SDS011;8375;33.594;-117.718;2022-08-25T13:05:04;11.90;;;6.47;;
16524;SDS011;8375;33.594;-117.718;2022-08-25T13:07:57;14.80;;;7.07;;
16524;SDS011;8375;33.594;-117.718;2022-08-25T13:10:51;12.43;;;7.03;;
16524;SDS011;8375;33.594;-117.718;2022-08-25T13:13:27;13.67;;;7.10;;
16524;SDS011;8375;33.594;-117.718;2022-08-25T13:16:05;15.83;;;6.87;;
16524;SDS011;8375;33.594;-117.718;2022-08-25T13:18:37;13.43;;;6.90;;
16524;SDS011;8375;33.594;-117.718;2022-08-25T13:21:07;11.73;;;7.37;;
16524;SDS011;8375;33.594;-117.718;2022-08-25T13:23:44;12.10;;;7.57;;
16524;SDS011;8375;33.594;-117.718;2022-08-25T13:26:15;14.00;;;6.90;;
16524;SDS011;8375;33.594;-117.718;2022-08-25T13:28:50;13.17;;;7.10;;
16524;SDS011;8375;33.594;-117.718;2022-08-25T13:31:22;13.73;;;7.33;;
16524;SDS011;8375;33.594;-117.718;2022-08-25T13:33:55;11.70;;;7.23;;
16524;SDS011;8375;33.594;-117.718;2022-08-25T13:36:25;15.77;;;6.87;;
16524;SDS011;8375;33.594;-117.718;2022-08-25T13:39:12;12.20;;;6.93;;
16524;SDS011;8375;33.594;-117.718;2022-08-25T13:41:43;9.70;;;6.90;;
16524;SDS011;8375;33.594;-117.718;2022-08-25T13:44:13;10.10;;;6.63;;
16524;SDS011;8375;33.594;-117.718;2022-08-25T13:46:43;13.20;;;7.57;;
16524;SDS011;8375;33.594;-117.718;2022-08-25T13:49:23;16.67;;;7.97;;
16524;SDS011;8375;33.594;-117.718;2022-08-25T13:51:53;10.70;;;6.93;;
16524;SDS011;8375;33.594;-117.718;2022-08-25T13:54:23;13.07;;;7.43;;
16524;SDS011;8375;33.594;-117.718;2022-08-25T13:57:02;14.47;;;7.10;;
16524;SDS011;8375;33.594;-117.718;2022-08-25T13:59:34;12.97;;;6.90;;
16524;SDS011;8375;33.594;-117.718;2022-08-25T14:02:06;13.63;;;7.23;;
16524;SDS011;8375;33.594;-117.718;2022-08-25T14:04:47;13.07;;;6.87;;
16524;SDS011;8375;33.594;-117.718;2022-08-25T14:07:26;11.77;;;7.30;;
16524;SDS011;8375;33.594;-117.718;2022-08-25T14:09:57;15.47;;;6.73;;
16524;SDS011;8375;33.594;-117.718;2022-08-25T14:12:29;13.93;;;6.27;;
16524;SDS011;8375;33.594;-117.718;2022-08-25T14:15:06;13.50;;;6.43;;
16524;SDS011;8375;33.594;-117.718;2022-08-25T14:17:39;14.10;;;6.30;;
16524;SDS011;8375;33.594;-117.718;2022-08-25T14:20:19;13.57;;;5.77;;
16524;SDS011;8375;33.594;-117.718;2022-08-25T14:22:53;10.47;;;6.03;;
16524;SDS011;8375;33.594;-117.718;2022-08-25T14:25:25;9.10;;;6.20;;
16524;SDS011;8375;33.594;-117.718;2022-08-25T14:27:54;12.30;;;5.87;;
16524;SDS011;8375;33.594;-117.718;2022-08-25T14:30:24;11.27;;;6.00;;
16524;SDS011;8375;33.594;-117.718;2022-08-25T14:32:52;14.00;;;6.27;;
16524;SDS011;8375;33.594;-117.718;2022-08-25T14:35:24;12.60;;;5.53;;
16524;SDS011;8375;33.594;-117.718;2022-08-25T14:37:54;11.33;;;6.03;;
16524;SDS011;8375;33.594;-117.718;2022-08-25T14:40:22;13.97;;;6.40;;
16524;SDS011;8375;33.594;-117.718;2022-08-25T14:42:51;12.30;;;6.53;;
16524;SDS011;8375;33.594;-117.718;2022-08-25T14:45:22;15.13;;;6.00;;
16524;SDS011;8375;33.594;-117.718;2022-08-25T14:47:51;15.47;;;6.37;;
16524;SDS011;8375;33.594;-117.718;2022-08-25T14:50:19;10.85;;;5.70;;
16524;SDS011;8375;33.594;-117.718;2022-08-25T14:52:50;11.77;;;5.82;;
16524;SDS011;8375;33.594;-117.718;2022-08-25T14:55:19;9.82;;;5.65;;
16524;SDS011;8375;33.594;-117.718;2022-08-25T14:57:47;12.38;;;5.95;;
16524;SDS011;8375;33.594;-117.718;2022-08-25T15:00:16;10.63;;;6.20;;
16524;SDS011;8375;33.594;-117.718;2022-08-25T15:02:45;12.73;;;5.22;;
16524;SDS011;8375;33.594;-117.718;2022-08-25T15:05:19;9.38;;;5.15;;